createdAt,value
2024-02-09T00:00:42.478Z,74.21
2024-02-09T00:05:46.394Z,73.00
2024-02-09T00:10:50.402Z,73.48
2024-02-09T00:15:55.111Z,74.42
2024-02-09T00:20:59.046Z,75.07
2024-02-09T00:26:03.246Z,75.94
2024-02-09T00:31:06.288Z,74.04
2024-02-09T00:36:12.498Z,73.93
2024-02-09T00:41:19.231Z,72.69
2024-02-09T00:46:23.269Z,72.95
2024-02-09T00:51:26.442Z,74.58
2024-02-09T00:56:30.121Z,76.14
2024-02-09T01:01:34.560Z,76.94
2024-02-09T01:06:38.772Z,77.92
2024-02-09T01:11:44.595Z,78.60
2024-02-09T01:17:06.436Z,79.19
2024-02-09T01:22:28.209Z,79.07
2024-02-09T01:27:50.042Z,79.82
2024-02-09T01:33:11.776Z,79.42
2024-02-09T01:38:33.925Z,79.21
2024-02-09T01:43:55.604Z,79.03
2024-02-09T01:49:18.964Z,78.90
2024-02-09T01:54:42.225Z,79.18
2024-02-09T02:00:14.935Z,79.57
2024-02-09T02:05:36.836Z,80.96
2024-02-09T02:10:59.179Z,80.47
2024-02-09T02:16:20.930Z,80.71
2024-02-09T02:21:43.012Z,80.42
2024-02-09T02:27:04.797Z,81.21
2024-02-09T02:32:26.554Z,81.61
2024-02-09T02:37:48.311Z,81.40
2024-02-09T02:42:51.454Z,80.98
2024-02-09T02:48:14.262Z,80.44
2024-02-09T02:53:36.064Z,80.83
2024-02-09T02:58:57.775Z,80.48
2024-02-09T03:04:19.711Z,79.39
2024-02-09T03:09:23.174Z,78.04
2024-02-09T03:14:29.553Z,77.65
2024-02-09T03:19:32.875Z,77.29
2024-02-09T03:24:36.130Z,73.77
2024-02-09T03:29:41.498Z,73.26
2024-02-09T03:34:45.436Z,72.00
2024-02-09T03:39:49.268Z,69.54
2024-02-09T03:44:52.984Z,66.15
2024-02-09T03:49:57.116Z,63.84
2024-02-09T03:55:00.447Z,66.61
2024-02-09T04:00:03.814Z,63.80
2024-02-09T04:05:18.529Z,58.53
2024-02-09T04:10:38.450Z,59.60
2024-02-09T04:15:45.035Z,62.57
2024-02-09T04:20:48.309Z,60.48
2024-02-09T04:25:52.570Z,55.13
2024-02-09T04:30:55.968Z,49.52
2024-02-09T04:36:00.578Z,45.91
2024-02-09T04:41:04.061Z,46.73
2024-02-09T04:46:07.807Z,45.46
2024-02-09T04:51:11.802Z,42.86
2024-02-09T04:56:24.150Z,41.68
2024-02-09T05:01:31.884Z,37.65
2024-02-09T05:06:35.904Z,36.77
2024-02-09T05:11:40.888Z,34.71
2024-02-09T05:16:44.237Z,33.44
2024-02-09T05:21:47.513Z,33.41
2024-02-09T05:26:50.867Z,31.67
2024-02-09T05:31:58.069Z,33.24
2024-02-09T05:37:01.757Z,33.66
2024-02-09T05:42:05.358Z,33.18
2024-02-09T05:47:08.672Z,34.48
2024-02-09T05:52:12.895Z,34.56
2024-02-09T05:57:17.992Z,35.72
2024-02-09T06:02:22.166Z,35.86
2024-02-09T06:07:29.034Z,36.73
2024-02-09T06:12:36.789Z,35.43
2024-02-09T06:17:42.813Z,36.10
2024-02-09T06:22:46.293Z,37.04
2024-02-09T06:27:50.068Z,37.20
2024-02-09T06:32:53.953Z,38.14
2024-02-09T06:37:57.955Z,38.87
2024-02-09T06:43:01.421Z,38.58
2024-02-09T06:48:07.383Z,39.45
2024-02-09T06:53:11.205Z,35.63
2024-02-09T06:58:15.458Z,32.79
2024-02-09T07:03:19.447Z,31.25
2024-02-09T07:08:32.433Z,30.07
2024-02-09T07:13:36.255Z,28.41
2024-02-09T07:18:44.293Z,28.37
2024-02-09T07:23:52.361Z,27.81
2024-02-09T07:28:56.243Z,27.21
2024-02-09T07:33:59.641Z,27.55
2024-02-09T07:39:04.055Z,25.71
2024-02-09T07:44:09.527Z,26.33
2024-02-09T07:49:16.130Z,26.19
2024-02-09T07:54:20.019Z,25.78
2024-02-09T07:59:25.556Z,26.37
2024-02-09T08:04:32.925Z,25.40
2024-02-09T08:09:38.161Z,27.12
2024-02-09T08:14:41.539Z,27.21
2024-02-09T08:19:45.955Z,25.66
2024-02-09T08:24:50.517Z,25.07
2024-02-09T08:29:58.668Z,24.80
2024-02-09T08:35:03.880Z,24.26
2024-02-09T08:40:08.037Z,23.33
2024-02-09T08:45:12.136Z,23.78
2024-02-09T08:50:16.269Z,23.65
2024-02-09T08:55:20.449Z,22.76
2024-02-09T09:00:24.220Z,23.84
2024-02-09T09:05:29.904Z,24.65
2024-02-09T09:10:33.231Z,25.18
2024-02-09T09:15:49.858Z,24.96
2024-02-09T09:20:54.741Z,23.92
2024-02-09T09:26:01.075Z,23.91
2024-02-09T09:31:06.723Z,24.12
2024-02-09T09:36:11.890Z,24.49
2024-02-09T09:41:15.334Z,24.39
2024-02-09T09:46:23.635Z,23.86
2024-02-09T09:51:35.160Z,23.67
2024-02-09T09:56:39.270Z,23.27
2024-02-09T10:01:43.113Z,23.71
2024-02-09T10:06:47.440Z,23.54
2024-02-09T10:11:52.724Z,24.23
2024-02-09T10:16:58.650Z,24.29
2024-02-09T10:27:06.054Z,24.50
2024-02-09T10:32:09.334Z,25.18
2024-02-09T10:37:21.425Z,25.79
2024-02-09T10:42:33.134Z,26.27
2024-02-09T10:47:38.982Z,25.11
2024-02-09T10:52:51.564Z,24.15
2024-02-09T10:57:57.549Z,26.52
2024-02-09T11:03:01.090Z,26.61
2024-02-09T11:08:06.134Z,27.99
2024-02-09T11:13:10.085Z,25.83
2024-02-09T11:18:18.921Z,27.12
2024-02-09T11:23:29.994Z,27.96
2024-02-09T11:28:36.226Z,28.27
2024-02-09T11:33:43.280Z,27.37
2024-02-09T11:38:48.066Z,26.58
2024-02-09T11:43:54.052Z,27.94
2024-02-09T11:49:00.723Z,27.49
2024-02-09T11:54:10.089Z,28.41
2024-02-09T11:59:14.577Z,29.33
2024-02-09T12:04:18.120Z,30.16
2024-02-09T12:09:22.774Z,30.15
2024-02-09T12:14:30.185Z,30.92
2024-02-09T12:19:34.591Z,34.23
2024-02-09T12:24:38.530Z,34.74
2024-02-09T12:29:44.008Z,36.26
2024-02-09T12:34:48.961Z,35.38
2024-02-09T12:39:56.097Z,34.27
2024-02-09T12:45:00.540Z,32.85
2024-02-09T12:50:06.842Z,31.52
2024-02-09T12:55:10.790Z,29.13
2024-02-09T13:00:15.838Z,30.01
2024-02-09T13:05:20.938Z,31.75
2024-02-09T13:10:25.249Z,34.10
2024-02-09T13:15:30.241Z,34.88
2024-02-09T13:20:33.834Z,34.52
2024-02-09T13:25:42.020Z,33.65
2024-02-09T13:30:46.327Z,35.10
2024-02-09T13:35:50.093Z,34.37
2024-02-09T13:40:54.866Z,32.79
2024-02-09T13:45:58.564Z,34.79
2024-02-09T13:51:03.414Z,37.85
2024-02-09T13:56:07.713Z,38.27
2024-02-09T14:01:11.874Z,39.62
2024-02-09T14:06:19.133Z,39.57
2024-02-09T14:11:24.881Z,40.11
2024-02-09T14:16:29.511Z,40.40
2024-02-09T14:21:34.354Z,41.63
2024-02-09T14:26:37.554Z,41.85
2024-02-09T14:31:41.311Z,44.88
2024-02-09T14:36:45.275Z,43.99
2024-02-09T14:41:49.005Z,44.63
2024-02-09T14:46:53.418Z,43.81
2024-02-09T14:51:58.211Z,43.18
2024-02-09T14:57:02.187Z,42.57
2024-02-09T15:02:05.879Z,41.58
2024-02-09T15:07:10.482Z,42.79
2024-02-09T15:12:17.757Z,44.84
2024-02-09T15:17:24.612Z,45.13
2024-02-09T15:22:28.517Z,45.50
2024-02-09T15:27:32.229Z,45.75
2024-02-09T15:32:37.653Z,46.81
2024-02-09T15:37:43.110Z,47.74
2024-02-09T15:42:47.022Z,46.97
2024-02-09T15:47:52.015Z,47.00
2024-02-09T15:52:55.998Z,45.63
2024-02-09T15:58:03.415Z,46.17
2024-02-09T16:03:07.250Z,45.67
2024-02-09T16:08:12.137Z,46.08
2024-02-09T16:13:18.461Z,47.20
2024-02-09T16:18:25.057Z,46.10
2024-02-09T16:23:28.353Z,47.41
2024-02-09T16:28:33.502Z,48.60
2024-02-09T16:33:38.430Z,51.04
2024-02-09T16:38:42.705Z,51.14
2024-02-09T16:43:47.056Z,52.28
2024-02-09T16:48:51.843Z,50.93
2024-02-09T16:53:55.684Z,48.66
2024-02-09T16:58:59.692Z,45.96
2024-02-09T17:04:03.211Z,45.03
2024-02-09T17:09:06.897Z,45.61
2024-02-09T17:14:12.164Z,45.93
2024-02-09T17:19:19.145Z,44.96
2024-02-09T17:24:23.071Z,44.23
2024-02-09T17:29:26.910Z,43.12
2024-02-09T17:34:31.342Z,42.42
2024-02-09T17:39:35.719Z,42.08
2024-02-09T17:44:39.342Z,48.14
2024-02-09T17:49:43.286Z,43.29
2024-02-09T17:54:47.057Z,44.45
2024-02-09T17:59:51.155Z,39.57
2024-02-09T18:04:56.932Z,39.36
2024-02-09T18:10:00.868Z,36.72
2024-02-09T18:15:04.986Z,37.29
2024-02-09T18:20:12.035Z,45.56
2024-02-09T18:25:19.850Z,41.67
2024-02-09T18:30:24.509Z,44.32
2024-02-09T18:35:29.865Z,39.81
2024-02-09T18:40:33.588Z,37.78
2024-02-09T18:45:38.383Z,41.24
2024-02-09T18:50:44.352Z,38.84
2024-02-09T18:55:48.616Z,39.79
2024-02-09T19:00:56.236Z,37.55
2024-02-09T19:06:00.410Z,39.59
2024-02-09T19:11:05.420Z,43.72
2024-02-09T19:16:09.430Z,42.13
2024-02-09T19:21:15.663Z,34.01
2024-02-09T19:26:19.931Z,34.11
2024-02-09T19:31:24.993Z,32.67
2024-02-09T19:36:29.219Z,32.15
2024-02-09T19:41:32.399Z,30.05
2024-02-09T19:46:37.381Z,30.29
2024-02-09T19:51:48.997Z,29.21
2024-02-09T19:56:53.377Z,30.18
2024-02-09T20:01:57.866Z,29.11
2024-02-09T20:07:01.994Z,28.03
2024-02-09T20:12:11.608Z,27.00
2024-02-09T20:17:15.144Z,26.90
2024-02-09T20:22:20.141Z,26.49
2024-02-09T20:27:24.482Z,28.68
2024-02-09T20:32:28.694Z,33.53
2024-02-09T20:37:34.496Z,42.29
2024-02-09T20:42:38.735Z,53.72
2024-02-09T20:47:44.659Z,62.50
2024-02-09T20:52:53.138Z,61.28
2024-02-09T20:57:57.111Z,53.74
2024-02-09T21:03:02.633Z,45.99
2024-02-09T21:08:06.662Z,40.44
2024-02-09T21:13:10.463Z,39.97
2024-02-09T21:18:14.052Z,37.14
2024-02-09T21:23:18.078Z,38.30
2024-02-09T21:28:22.804Z,38.68
2024-02-09T21:33:27.569Z,38.38
2024-02-09T21:38:31.259Z,39.64
2024-02-09T21:43:36.827Z,40.56
2024-02-09T21:48:42.117Z,40.66
2024-02-09T21:53:47.315Z,42.17
2024-02-09T21:58:50.864Z,44.69
2024-02-09T22:03:55.022Z,43.56
2024-02-09T22:08:59.459Z,44.19
2024-02-09T22:14:03.620Z,44.99
2024-02-09T22:19:08.222Z,44.52
2024-02-09T22:24:12.303Z,46.23
2024-02-09T22:29:16.197Z,47.30
2024-02-09T22:34:23.579Z,47.09
2024-02-09T22:39:34.828Z,49.30
2024-02-09T22:44:44.969Z,48.62
2024-02-09T22:49:51.708Z,47.38
2024-02-09T22:55:00.922Z,46.50
2024-02-09T23:00:30.927Z,45.94
2024-02-09T23:05:35.478Z,45.83
2024-02-09T23:10:39.342Z,44.29
2024-02-09T23:15:43.162Z,46.06
2024-02-09T23:20:47.210Z,44.54
2024-02-09T23:25:51.212Z,43.13
2024-02-09T23:30:55.195Z,40.75
2024-02-09T23:35:59.362Z,42.50
2024-02-09T23:41:03.396Z,42.06
2024-02-09T23:46:07.359Z,41.75
2024-02-09T23:51:13.558Z,41.76
2024-02-09T23:56:17.872Z,40.91
